sensor_id;sensor_type;location;lat;lon;timestamp;temperature;humidity
38183;DHT22;23991;52.430;10.586;2022-09-25T00:00:24;14.30;83.50
38183;DHT22;23991;52.430;10.586;2022-09-25T00:02:50;14.30;83.40
38183;DHT22;23991;52.430;10.586;2022-09-25T00:05:15;14.30;83.40
38183;DHT22;23991;52.430;10.586;2022-09-25T00:07:41;14.20;83.40
38183;DHT22;23991;52.430;10.586;2022-09-25T00:10:07;14.20;83.40
38183;DHT22;23991;52.430;10.586;2022-09-25T00:12:33;14.30;83.50
38183;DHT22;23991;52.430;10.586;2022-09-25T00:15:00;14.20;83.50
38183;DHT22;23991;52.430;10.586;2022-09-25T00:17:26;14.20;83.70
38183;DHT22;23991;52.430;10.586;2022-09-25T00:19:52;14.20;83.60
38183;DHT22;23991;52.430;10.586;2022-09-25T00:22:19;14.30;83.70
38183;DHT22;23991;52.430;10.586;2022-09-25T00:24:45;14.20;83.80
38183;DHT22;23991;52.430;10.586;2022-09-25T00:27:11;14.20;83.90
38183;DHT22;23991;52.430;10.586;2022-09-25T00:29:38;14.20;83.90
38183;DHT22;23991;52.430;10.586;2022-09-25T00:32:06;14.20;84.00
38183;DHT22;23991;52.430;10.586;2022-09-25T00:34:32;14.20;84.00
38183;DHT22;23991;52.430;10.586;2022-09-25T00:36:57;14.20;84.00
38183;DHT22;23991;52.430;10.586;2022-09-25T00:39:23;14.10;84.00
38183;DHT22;23991;52.430;10.586;2022-09-25T00:41:50;14.10;83.90
38183;DHT22;23991;52.430;10.586;2022-09-25T00:47:10;14.20;84.00
38183;DHT22;23991;52.430;10.586;2022-09-25T00:49:39;14.10;84.00
38183;DHT22;23991;52.430;10.586;2022-09-25T00:52:09;14.10;84.20
38183;DHT22;23991;52.430;10.586;2022-09-25T00:54:47;14.10;84.20
38183;DHT22;23991;52.430;10.586;2022-09-25T00:57:18;14.10;84.30
38183;DHT22;23991;52.430;10.586;2022-09-25T00:59:47;14.10;84.40
38183;DHT22;23991;52.430;10.586;2022-09-25T01:02:29;14.10;84.40
38183;DHT22;23991;52.430;10.586;2022-09-25T01:05:08;14.10;84.50
38183;DHT22;23991;52.430;10.586;2022-09-25T01:07:38;14.10;84.50
38183;DHT22;23991;52.430;10.586;2022-09-25T01:10:05;14.10;84.60
38183;DHT22;23991;52.430;10.586;2022-09-25T01:12:44;14.10;84.60
38183;DHT22;23991;52.430;10.586;2022-09-25T01:15:12;14.10;84.70
38183;DHT22;23991;52.430;10.586;2022-09-25T01:18:00;14.10;84.70
38183;DHT22;23991;52.430;10.586;2022-09-25T01:20:49;14.10;84.70
38183;DHT22;23991;52.430;10.586;2022-09-25T01:31:45;14.10;84.90
38183;DHT22;23991;52.430;10.586;2022-09-25T01:34:44;14.10;84.90
38183;DHT22;23991;52.430;10.586;2022-09-25T01:37:19;14.10;84.90
38183;DHT22;23991;52.430;10.586;2022-09-25T01:39:55;14.00;84.90
38183;DHT22;23991;52.430;10.586;2022-09-25T01:42:28;14.10;85.00
38183;DHT22;23991;52.430;10.586;2022-09-25T01:45:02;14.00;85.00
38183;DHT22;23991;52.430;10.586;2022-09-25T01:47:30;14.00;85.10
38183;DHT22;23991;52.430;10.586;2022-09-25T01:50:00;14.00;85.10
38183;DHT22;23991;52.430;10.586;2022-09-25T01:52:33;14.10;85.10
38183;DHT22;23991;52.430;10.586;2022-09-25T01:55:07;14.00;85.20
38183;DHT22;23991;52.430;10.586;2022-09-25T01:57:39;14.00;85.10
38183;DHT22;23991;52.430;10.586;2022-09-25T02:00:08;14.00;85.20
38183;DHT22;23991;52.430;10.586;2022-09-25T02:02:43;14.00;85.20
38183;DHT22;23991;52.430;10.586;2022-09-25T02:05:19;14.10;85.20
38183;DHT22;23991;52.430;10.586;2022-09-25T02:07:50;14.00;85.30
38183;DHT22;23991;52.430;10.586;2022-09-25T02:10:28;14.10;85.30
38183;DHT22;23991;52.430;10.586;2022-09-25T02:13:07;14.00;85.30
38183;DHT22;23991;52.430;10.586;2022-09-25T02:15:37;14.00;85.30
38183;DHT22;23991;52.430;10.586;2022-09-25T02:18:04;14.00;85.40
38183;DHT22;23991;52.430;10.586;2022-09-25T02:27:01;14.00;85.50
38183;DHT22;23991;52.430;10.586;2022-09-25T02:29:28;14.00;85.40
38183;DHT22;23991;52.430;10.586;2022-09-25T02:31:58;14.00;85.50
38183;DHT22;23991;52.430;10.586;2022-09-25T02:34:24;14.00;85.50
38183;DHT22;23991;52.430;10.586;2022-09-25T02:36:50;13.90;85.60
38183;DHT22;23991;52.430;10.586;2022-09-25T02:39:19;14.00;85.60
38183;DHT22;23991;52.430;10.586;2022-09-25T02:47:33;14.00;85.70
38183;DHT22;23991;52.430;10.586;2022-09-25T02:55:42;13.90;85.80
38183;DHT22;23991;52.430;10.586;2022-09-25T02:58:24;13.90;85.90
38183;DHT22;23991;52.430;10.586;2022-09-25T03:00:52;13.90;85.80
38183;DHT22;23991;52.430;10.586;2022-09-25T03:03:20;13.90;85.80
38183;DHT22;23991;52.430;10.586;2022-09-25T03:05:48;13.90;85.80
38183;DHT22;23991;52.430;10.586;2022-09-25T03:08:15;13.90;85.90
38183;DHT22;23991;52.430;10.586;2022-09-25T03:10:59;13.90;85.90
38183;DHT22;23991;52.430;10.586;2022-09-25T03:13:26;13.90;85.90
38183;DHT22;23991;52.430;10.586;2022-09-25T03:16:46;13.90;85.90
38183;DHT22;23991;52.430;10.586;2022-09-25T03:18:54;13.90;85.90
38183;DHT22;23991;52.430;10.586;2022-09-25T03:21:20;13.90;85.90
38183;DHT22;23991;52.430;10.586;2022-09-25T03:23:46;13.90;85.90
38183;DHT22;23991;52.430;10.586;2022-09-25T03:26:11;13.90;85.90
38183;DHT22;23991;52.430;10.586;2022-09-25T03:28:37;13.90;86.00
38183;DHT22;23991;52.430;10.586;2022-09-25T03:31:05;13.90;86.00
38183;DHT22;23991;52.430;10.586;2022-09-25T03:33:41;13.90;86.10
38183;DHT22;23991;52.430;10.586;2022-09-25T03:36:11;13.90;86.10
38183;DHT22;23991;52.430;10.586;2022-09-25T03:38:37;13.80;86.10
38183;DHT22;23991;52.430;10.586;2022-09-25T03:41:04;13.90;86.10
38183;DHT22;23991;52.430;10.586;2022-09-25T03:43:33;13.90;86.10
38183;DHT22;23991;52.430;10.586;2022-09-25T03:46:01;13.90;86.00
38183;DHT22;23991;52.430;10.586;2022-09-25T03:48:28;13.90;86.10
38183;DHT22;23991;52.430;10.586;2022-09-25T03:50:53;13.80;86.20
38183;DHT22;23991;52.430;10.586;2022-09-25T03:53:20;13.80;86.20
38183;DHT22;23991;52.430;10.586;2022-09-25T03:55:46;13.80;86.20
38183;DHT22;23991;52.430;10.586;2022-09-25T03:58:16;13.80;86.10
38183;DHT22;23991;52.430;10.586;2022-09-25T04:00:43;13.80;86.10
38183;DHT22;23991;52.430;10.586;2022-09-25T04:03:10;13.80;86.10
38183;DHT22;23991;52.430;10.586;2022-09-25T04:05:36;13.80;86.10
38183;DHT22;23991;52.430;10.586;2022-09-25T04:08:01;13.80;86.20
38183;DHT22;23991;52.430;10.586;2022-09-25T04:10:27;13.80;86.30
38183;DHT22;23991;52.430;10.586;2022-09-25T04:12:53;13.80;86.30
38183;DHT22;23991;52.430;10.586;2022-09-25T04:15:20;13.80;86.30
38183;DHT22;23991;52.430;10.586;2022-09-25T04:17:50;13.80;86.30
38183;DHT22;23991;52.430;10.586;2022-09-25T04:20:17;13.80;86.30
38183;DHT22;23991;52.430;10.586;2022-09-25T04:22:43;13.80;86.30
38183;DHT22;23991;52.430;10.586;2022-09-25T04:25:09;13.80;86.30
38183;DHT22;23991;52.430;10.586;2022-09-25T04:27:35;13.80;86.40
38183;DHT22;23991;52.430;10.586;2022-09-25T04:30:04;13.70;86.70
38183;DHT22;23991;52.430;10.586;2022-09-25T04:32:30;13.70;86.70
38183;DHT22;23991;52.430;10.586;2022-09-25T04:35:14;13.70;86.90
38183;DHT22;23991;52.430;10.586;2022-09-25T04:37:40;13.70;87.00
38183;DHT22;23991;52.430;10.586;2022-09-25T04:40:06;13.70;87.10
38183;DHT22;23991;52.430;10.586;2022-09-25T04:42:32;13.70;87.10
38183;DHT22;23991;52.430;10.586;2022-09-25T04:44:58;13.70;87.10
38183;DHT22;23991;52.430;10.586;2022-09-25T04:47:26;13.70;87.10
38183;DHT22;23991;52.430;10.586;2022-09-25T04:49:53;13.70;87.20
38183;DHT22;23991;52.430;10.586;2022-09-25T04:52:19;13.70;87.20
38183;DHT22;23991;52.430;10.586;2022-09-25T04:54:45;13.70;87.20
38183;DHT22;23991;52.430;10.586;2022-09-25T04:57:19;13.70;87.30
38183;DHT22;23991;52.430;10.586;2022-09-25T04:59:45;13.70;87.30
38183;DHT22;23991;52.430;10.586;2022-09-25T05:02:11;13.70;87.40
38183;DHT22;23991;52.430;10.586;2022-09-25T05:04:37;13.60;87.50
38183;DHT22;23991;52.430;10.586;2022-09-25T05:07:03;13.70;87.60
38183;DHT22;23991;52.430;10.586;2022-09-25T05:09:30;13.70;87.60
38183;DHT22;23991;52.430;10.586;2022-09-25T05:11:56;13.70;87.60
38183;DHT22;23991;52.430;10.586;2022-09-25T05:14:22;13.60;87.70
38183;DHT22;23991;52.430;10.586;2022-09-25T05:16:48;13.60;87.80
38183;DHT22;23991;52.430;10.586;2022-09-25T05:19:14;13.60;87.90
38183;DHT22;23991;52.430;10.586;2022-09-25T05:21:40;13.70;87.90
38183;DHT22;23991;52.430;10.586;2022-09-25T05:24:06;13.60;87.90
38183;DHT22;23991;52.430;10.586;2022-09-25T05:26:33;13.60;87.90
38183;DHT22;23991;52.430;10.586;2022-09-25T05:29:00;13.60;88.10
38183;DHT22;23991;52.430;10.586;2022-09-25T05:31:26;13.60;88.00
38183;DHT22;23991;52.430;10.586;2022-09-25T05:33:51;13.60;88.00
38183;DHT22;23991;52.430;10.586;2022-09-25T05:36:18;13.60;88.10
38183;DHT22;23991;52.430;10.586;2022-09-25T05:38:45;13.60;88.10
38183;DHT22;23991;52.430;10.586;2022-09-25T05:41:11;13.60;88.10
38183;DHT22;23991;52.430;10.586;2022-09-25T05:43:41;13.70;88.10
38183;DHT22;23991;52.430;10.586;2022-09-25T05:46:08;13.60;88.10
38183;DHT22;23991;52.430;10.586;2022-09-25T05:48:35;13.60;88.20
38183;DHT22;23991;52.430;10.586;2022-09-25T05:51:01;13.60;88.30
38183;DHT22;23991;52.430;10.586;2022-09-25T05:53:27;13.60;88.30
38183;DHT22;23991;52.430;10.586;2022-09-25T05:55:55;13.60;88.30
38183;DHT22;23991;52.430;10.586;2022-09-25T05:58:23;13.60;88.30
38183;DHT22;23991;52.430;10.586;2022-09-25T06:00:49;13.60;88.20
38183;DHT22;23991;52.430;10.586;2022-09-25T06:03:15;13.60;88.20
38183;DHT22;23991;52.430;10.586;2022-09-25T06:05:41;13.60;88.10
38183;DHT22;23991;52.430;10.586;2022-09-25T06:08:07;13.60;88.00
38183;DHT22;23991;52.430;10.586;2022-09-25T06:10:33;13.70;87.80
38183;DHT22;23991;52.430;10.586;2022-09-25T06:13:01;13.70;87.80
38183;DHT22;23991;52.430;10.586;2022-09-25T06:15:28;13.80;87.70
38183;DHT22;23991;52.430;10.586;2022-09-25T06:17:54;13.80;87.30
38183;DHT22;23991;52.430;10.586;2022-09-25T06:20:21;13.90;87.10
38183;DHT22;23991;52.430;10.586;2022-09-25T06:22:54;14.00;86.80
38183;DHT22;23991;52.430;10.586;2022-09-25T06:25:21;14.00;86.30
38183;DHT22;23991;52.430;10.586;2022-09-25T06:27:50;14.10;86.20
38183;DHT22;23991;52.430;10.586;2022-09-25T06:30:16;14.20;86.00
38183;DHT22;23991;52.430;10.586;2022-09-25T06:32:43;14.20;85.70
38183;DHT22;23991;52.430;10.586;2022-09-25T06:35:09;14.30;85.40
38183;DHT22;23991;52.430;10.586;2022-09-25T06:37:34;14.30;84.90
38183;DHT22;23991;52.430;10.586;2022-09-25T06:40:00;14.30;84.50
38183;DHT22;23991;52.430;10.586;2022-09-25T06:42:26;14.40;84.30
38183;DHT22;23991;52.430;10.586;2022-09-25T06:44:51;14.40;84.10
38183;DHT22;23991;52.430;10.586;2022-09-25T06:47:17;14.50;83.90
38183;DHT22;23991;52.430;10.586;2022-09-25T06:49:42;14.50;83.70
38183;DHT22;23991;52.430;10.586;2022-09-25T06:52:08;14.60;83.50
38183;DHT22;23991;52.430;10.586;2022-09-25T06:54:34;14.60;83.20
38183;DHT22;23991;52.430;10.586;2022-09-25T06:56:59;14.80;83.10
38183;DHT22;23991;52.430;10.586;2022-09-25T06:59:25;14.80;82.90
38183;DHT22;23991;52.430;10.586;2022-09-25T07:01:51;14.80;82.60
38183;DHT22;23991;52.430;10.586;2022-09-25T07:04:16;14.90;82.60
38183;DHT22;23991;52.430;10.586;2022-09-25T07:06:43;15.00;82.30
38183;DHT22;23991;52.430;10.586;2022-09-25T07:09:09;15.00;82.00
38183;DHT22;23991;52.430;10.586;2022-09-25T07:11:34;15.00;81.80
38183;DHT22;23991;52.430;10.586;2022-09-25T07:14:00;15.10;81.70
38183;DHT22;23991;52.430;10.586;2022-09-25T07:16:28;15.20;81.30
38183;DHT22;23991;52.430;10.586;2022-09-25T07:18:55;15.30;81.00
38183;DHT22;23991;52.430;10.586;2022-09-25T07:21:30;15.30;80.70
38183;DHT22;23991;52.430;10.586;2022-09-25T07:23:56;15.30;80.60
38183;DHT22;23991;52.430;10.586;2022-09-25T07:26:26;15.40;80.30
38183;DHT22;23991;52.430;10.586;2022-09-25T07:28:57;15.40;80.10
38183;DHT22;23991;52.430;10.586;2022-09-25T07:31:28;15.50;79.90
38183;DHT22;23991;52.430;10.586;2022-09-25T07:33:54;15.40;79.90
38183;DHT22;23991;52.430;10.586;2022-09-25T07:36:20;15.50;79.70
38183;DHT22;23991;52.430;10.586;2022-09-25T07:38:50;15.50;79.70
38183;DHT22;23991;52.430;10.586;2022-09-25T07:41:16;15.50;79.80
38183;DHT22;23991;52.430;10.586;2022-09-25T07:43:43;15.60;79.70
38183;DHT22;23991;52.430;10.586;2022-09-25T07:46:09;15.80;79.40
38183;DHT22;23991;52.430;10.586;2022-09-25T07:48:35;15.80;78.90
38183;DHT22;23991;52.430;10.586;2022-09-25T07:51:09;15.80;78.70
38183;DHT22;23991;52.430;10.586;2022-09-25T07:53:35;15.90;78.40
38183;DHT22;23991;52.430;10.586;2022-09-25T07:56:01;15.90;78.20
38183;DHT22;23991;52.430;10.586;2022-09-25T07:58:27;15.90;78.20
38183;DHT22;23991;52.430;10.586;2022-09-25T08:00:57;16.10;77.80
38183;DHT22;23991;52.430;10.586;2022-09-25T08:03:23;16.20;77.50
38183;DHT22;23991;52.430;10.586;2022-09-25T08:08:28;16.10;77.40
38183;DHT22;23991;52.430;10.586;2022-09-25T08:10:59;16.30;77.30
38183;DHT22;23991;52.430;10.586;2022-09-25T08:13:25;16.30;77.00
38183;DHT22;23991;52.430;10.586;2022-09-25T08:15:51;16.20;76.80
38183;DHT22;23991;52.430;10.586;2022-09-25T08:18:17;16.20;77.10
38183;DHT22;23991;52.430;10.586;2022-09-25T08:20:42;16.20;77.20
38183;DHT22;23991;52.430;10.586;2022-09-25T08:23:08;16.20;77.40
38183;DHT22;23991;52.430;10.586;2022-09-25T08:25:33;16.30;76.90
38183;DHT22;23991;52.430;10.586;2022-09-25T08:27:59;16.30;76.90
38183;DHT22;23991;52.430;10.586;2022-09-25T08:30:25;16.30;76.80
38183;DHT22;23991;52.430;10.586;2022-09-25T08:32:51;16.30;76.20
38183;DHT22;23991;52.430;10.586;2022-09-25T08:35:17;16.30;75.90
38183;DHT22;23991;52.430;10.586;2022-09-25T08:37:43;16.40;76.00
38183;DHT22;23991;52.430;10.586;2022-09-25T08:40:29;16.50;75.90
38183;DHT22;23991;52.430;10.586;2022-09-25T08:42:56;16.50;75.70
38183;DHT22;23991;52.430;10.586;2022-09-25T08:45:27;16.60;75.30
38183;DHT22;23991;52.430;10.586;2022-09-25T08:48:25;16.60;75.40
38183;DHT22;23991;52.430;10.586;2022-09-25T08:51:11;16.80;74.70
38183;DHT22;23991;52.430;10.586;2022-09-25T08:53:38;16.90;74.30
38183;DHT22;23991;52.430;10.586;2022-09-25T08:56:05;16.90;74.20
38183;DHT22;23991;52.430;10.586;2022-09-25T08:58:45;16.80;74.20
38183;DHT22;23991;52.430;10.586;2022-09-25T09:01:21;16.90;74.10
38183;DHT22;23991;52.430;10.586;2022-09-25T09:04:29;16.90;74.20
38183;DHT22;23991;52.430;10.586;2022-09-25T09:07:10;17.00;73.90
38183;DHT22;23991;52.430;10.586;2022-09-25T09:09:48;17.10;73.40
38183;DHT22;23991;52.430;10.586;2022-09-25T09:12:20;17.20;73.10
38183;DHT22;23991;52.430;10.586;2022-09-25T09:14:50;17.20;72.90
38183;DHT22;23991;52.430;10.586;2022-09-25T09:17:23;17.20;73.40
38183;DHT22;23991;52.430;10.586;2022-09-25T09:20:16;17.30;72.70
38183;DHT22;23991;52.430;10.586;2022-09-25T09:22:47;17.40;72.00
38183;DHT22;23991;52.430;10.586;2022-09-25T09:28:00;17.40;72.10
38183;DHT22;23991;52.430;10.586;2022-09-25T09:30:47;17.60;71.30
38183;DHT22;23991;52.430;10.586;2022-09-25T09:33:26;17.70;71.00
38183;DHT22;23991;52.430;10.586;2022-09-25T09:41:20;17.80;70.40
38183;DHT22;23991;52.430;10.586;2022-09-25T09:49:42;17.90;69.50
38183;DHT22;23991;52.430;10.586;2022-09-25T09:52:16;17.90;69.60
38183;DHT22;23991;52.430;10.586;2022-09-25T09:54:45;17.80;69.10
38183;DHT22;23991;52.430;10.586;2022-09-25T09:57:27;17.90;69.30
38183;DHT22;23991;52.430;10.586;2022-09-25T10:02:26;18.00;69.50
38183;DHT22;23991;52.430;10.586;2022-09-25T10:04:54;17.80;69.40
38183;DHT22;23991;52.430;10.586;2022-09-25T10:07:22;17.80;69.40
38183;DHT22;23991;52.430;10.586;2022-09-25T10:09:49;18.00;69.10
38183;DHT22;23991;52.430;10.586;2022-09-25T10:12:30;18.00;69.00
38183;DHT22;23991;52.430;10.586;2022-09-25T10:15:00;18.20;68.80
38183;DHT22;23991;52.430;10.586;2022-09-25T10:17:29;18.20;68.20
38183;DHT22;23991;52.430;10.586;2022-09-25T10:20:00;18.20;68.40
38183;DHT22;23991;52.430;10.586;2022-09-25T10:22:37;18.40;68.20
38183;DHT22;23991;52.430;10.586;2022-09-25T10:25:05;18.50;67.60
38183;DHT22;23991;52.430;10.586;2022-09-25T10:27:38;18.30;67.90
38183;DHT22;23991;52.430;10.586;2022-09-25T10:32:54;18.30;67.60
38183;DHT22;23991;52.430;10.586;2022-09-25T10:38:01;18.20;68.40
38183;DHT22;23991;52.430;10.586;2022-09-25T10:40:32;18.20;68.30
38183;DHT22;23991;52.430;10.586;2022-09-25T10:43:17;18.30;67.90
38183;DHT22;23991;52.430;10.586;2022-09-25T10:45:45;18.40;67.70
38183;DHT22;23991;52.430;10.586;2022-09-25T10:51:12;18.40;67.50
38183;DHT22;23991;52.430;10.586;2022-09-25T10:53:42;18.50;67.50
38183;DHT22;23991;52.430;10.586;2022-09-25T10:56:15;18.50;67.10
38183;DHT22;23991;52.430;10.586;2022-09-25T10:58:42;18.70;66.60
38183;DHT22;23991;52.430;10.586;2022-09-25T11:01:10;18.80;66.20
38183;DHT22;23991;52.430;10.586;2022-09-25T11:03:50;19.00;66.00
38183;DHT22;23991;52.430;10.586;2022-09-25T11:06:25;19.10;65.10
38183;DHT22;23991;52.430;10.586;2022-09-25T11:09:02;18.90;65.40
38183;DHT22;23991;52.430;10.586;2022-09-25T11:11:29;18.80;65.70
38183;DHT22;23991;52.430;10.586;2022-09-25T11:13:57;18.80;65.50
38183;DHT22;23991;52.430;10.586;2022-09-25T11:16:46;18.80;65.70
38183;DHT22;23991;52.430;10.586;2022-09-25T11:19:24;18.80;66.00
38183;DHT22;23991;52.430;10.586;2022-09-25T11:25:33;18.80;65.90
38183;DHT22;23991;52.430;10.586;2022-09-25T11:27:39;18.70;65.60
38183;DHT22;23991;52.430;10.586;2022-09-25T11:30:17;18.70;65.50
38183;DHT22;23991;52.430;10.586;2022-09-25T11:33:00;18.80;65.50
38183;DHT22;23991;52.430;10.586;2022-09-25T11:35:49;18.80;65.90
38183;DHT22;23991;52.430;10.586;2022-09-25T11:38:38;18.80;65.70
38183;DHT22;23991;52.430;10.586;2022-09-25T11:44:21;18.70;65.90
38183;DHT22;23991;52.430;10.586;2022-09-25T11:47:24;18.80;65.60
38183;DHT22;23991;52.430;10.586;2022-09-25T11:49:53;19.00;65.10
38183;DHT22;23991;52.430;10.586;2022-09-25T12:00:08;19.30;64.10
38183;DHT22;23991;52.430;10.586;2022-09-25T12:21:43;19.70;62.70
38183;DHT22;23991;52.430;10.586;2022-09-25T12:24:18;19.70;63.00
38183;DHT22;23991;52.430;10.586;2022-09-25T12:27:05;19.80;62.30
38183;DHT22;23991;52.430;10.586;2022-09-25T12:32:26;20.10;61.80
38183;DHT22;23991;52.430;10.586;2022-09-25T12:35:17;20.20;61.90
38183;DHT22;23991;52.430;10.586;2022-09-25T12:37:57;20.30;60.90
38183;DHT22;23991;52.430;10.586;2022-09-25T12:43:06;20.40;59.70
38183;DHT22;23991;52.430;10.586;2022-09-25T12:45:47;20.40;59.40
38183;DHT22;23991;52.430;10.586;2022-09-25T12:50:53;20.30;60.40
38183;DHT22;23991;52.430;10.586;2022-09-25T12:56:03;20.20;59.90
38183;DHT22;23991;52.430;10.586;2022-09-25T13:01:19;20.10;61.00
38183;DHT22;23991;52.430;10.586;2022-09-25T13:09:16;19.90;62.30
38183;DHT22;23991;52.430;10.586;2022-09-25T13:11:47;19.90;61.40
38183;DHT22;23991;52.430;10.586;2022-09-25T13:16:51;19.80;61.60
38183;DHT22;23991;52.430;10.586;2022-09-25T13:19:28;19.80;61.90
38183;DHT22;23991;52.430;10.586;2022-09-25T13:22:02;19.90;61.80
38183;DHT22;23991;52.430;10.586;2022-09-25T13:24:29;19.80;61.50
38183;DHT22;23991;52.430;10.586;2022-09-25T13:26:59;19.80;61.40
38183;DHT22;23991;52.430;10.586;2022-09-25T13:29:35;19.90;61.60
38183;DHT22;23991;52.430;10.586;2022-09-25T13:32:19;19.90;60.70
38183;DHT22;23991;52.430;10.586;2022-09-25T13:34:45;20.00;60.90
38183;DHT22;23991;52.430;10.586;2022-09-25T13:37:13;20.10;61.60
38183;DHT22;23991;52.430;10.586;2022-09-25T13:39:44;20.20;60.90
38183;DHT22;23991;52.430;10.586;2022-09-25T13:42:44;20.10;61.40
38183;DHT22;23991;52.430;10.586;2022-09-25T13:45:32;20.30;60.50
38183;DHT22;23991;52.430;10.586;2022-09-25T13:48:12;20.40;59.60
38183;DHT22;23991;52.430;10.586;2022-09-25T13:51:35;20.30;59.90
38183;DHT22;23991;52.430;10.586;2022-09-25T13:54:24;20.40;59.60
38183;DHT22;23991;52.430;10.586;2022-09-25T13:56:50;20.70;58.90
38183;DHT22;23991;52.430;10.586;2022-09-25T13:59:21;20.80;57.30
38183;DHT22;23991;52.430;10.586;2022-09-25T14:01:54;21.20;56.80
38183;DHT22;23991;52.430;10.586;2022-09-25T14:04:40;21.30;55.70
38183;DHT22;23991;52.430;10.586;2022-09-25T14:07:23;21.50;55.20
38183;DHT22;23991;52.430;10.586;2022-09-25T14:09:54;21.60;54.60
38183;DHT22;23991;52.430;10.586;2022-09-25T14:12:30;21.60;54.20
38183;DHT22;23991;52.430;10.586;2022-09-25T14:15:01;21.60;54.00
38183;DHT22;23991;52.430;10.586;2022-09-25T14:17:30;21.40;54.30
38183;DHT22;23991;52.430;10.586;2022-09-25T14:19:58;21.30;54.50
38183;DHT22;23991;52.430;10.586;2022-09-25T14:22:42;21.40;54.50
38183;DHT22;23991;52.430;10.586;2022-09-25T14:25:28;21.70;53.90
38183;DHT22;23991;52.430;10.586;2022-09-25T14:27:59;22.10;52.20
38183;DHT22;23991;52.430;10.586;2022-09-25T14:30:25;22.30;51.50
38183;DHT22;23991;52.430;10.586;2022-09-25T14:33:07;22.40;50.90
38183;DHT22;23991;52.430;10.586;2022-09-25T14:35:54;22.30;50.70
38183;DHT22;23991;52.430;10.586;2022-09-25T14:41:24;22.00;52.00
38183;DHT22;23991;52.430;10.586;2022-09-25T14:46:27;21.70;52.50
38183;DHT22;23991;52.430;10.586;2022-09-25T14:48:57;21.50;52.30
38183;DHT22;23991;52.430;10.586;2022-09-25T14:51:37;21.50;52.90
38183;DHT22;23991;52.430;10.586;2022-09-25T14:54:06;21.30;53.80
38183;DHT22;23991;52.430;10.586;2022-09-25T14:56:34;21.30;54.00
38183;DHT22;23991;52.430;10.586;2022-09-25T14:59:08;21.10;54.30
38183;DHT22;23991;52.430;10.586;2022-09-25T15:01:44;21.10;54.60
38183;DHT22;23991;52.430;10.586;2022-09-25T15:04:10;21.20;54.10
38183;DHT22;23991;52.430;10.586;2022-09-25T15:06:37;21.60;54.00
38183;DHT22;23991;52.430;10.586;2022-09-25T15:09:35;21.90;52.50
38183;DHT22;23991;52.430;10.586;2022-09-25T15:12:23;22.00;51.30
38183;DHT22;23991;52.430;10.586;2022-09-25T15:17:42;22.20;50.00
38183;DHT22;23991;52.430;10.586;2022-09-25T15:20:11;22.20;48.80
38183;DHT22;23991;52.430;10.586;2022-09-25T15:22:47;22.20;46.80
38183;DHT22;23991;52.430;10.586;2022-09-25T15:25:21;22.40;46.40
38183;DHT22;23991;52.430;10.586;2022-09-25T15:27:48;22.50;45.50
38183;DHT22;23991;52.430;10.586;2022-09-25T15:30:15;22.30;46.30
38183;DHT22;23991;52.430;10.586;2022-09-25T15:32:42;22.70;45.30
38183;DHT22;23991;52.430;10.586;2022-09-25T15:35:21;22.70;45.20
38183;DHT22;23991;52.430;10.586;2022-09-25T15:37:48;22.80;45.00
38183;DHT22;23991;52.430;10.586;2022-09-25T15:42:44;22.70;45.40
38183;DHT22;23991;52.430;10.586;2022-09-25T15:45:35;22.80;45.40
38183;DHT22;23991;52.430;10.586;2022-09-25T15:51:21;22.50;45.90
38183;DHT22;23991;52.430;10.586;2022-09-25T15:53:50;22.40;46.50
38183;DHT22;23991;52.430;10.586;2022-09-25T15:56:26;22.40;47.10
38183;DHT22;23991;52.430;10.586;2022-09-25T15:59:01;22.50;47.50
38183;DHT22;23991;52.430;10.586;2022-09-25T16:01:30;22.50;47.20
38183;DHT22;23991;52.430;10.586;2022-09-25T16:04:21;22.30;47.60
38183;DHT22;23991;52.430;10.586;2022-09-25T16:07:20;22.20;48.40
38183;DHT22;23991;52.430;10.586;2022-09-25T16:09:50;22.10;49.30
38183;DHT22;23991;52.430;10.586;2022-09-25T16:17:55;21.30;51.00
38183;DHT22;23991;52.430;10.586;2022-09-25T16:23:00;21.10;51.90
38183;DHT22;23991;52.430;10.586;2022-09-25T16:25:33;21.10;51.90
38183;DHT22;23991;52.430;10.586;2022-09-25T16:28:06;20.80;52.60
38183;DHT22;23991;52.430;10.586;2022-09-25T16:30:33;20.70;53.30
38183;DHT22;23991;52.430;10.586;2022-09-25T16:33:24;20.70;53.60
38183;DHT22;23991;52.430;10.586;2022-09-25T16:35:51;20.50;54.20
38183;DHT22;23991;52.430;10.586;2022-09-25T16:38:30;20.50;54.40
38183;DHT22;23991;52.430;10.586;2022-09-25T16:41:03;20.60;54.30
38183;DHT22;23991;52.430;10.586;2022-09-25T16:43:30;20.40;55.00
38183;DHT22;23991;52.430;10.586;2022-09-25T16:46:03;20.30;55.70
38183;DHT22;23991;52.430;10.586;2022-09-25T16:48:37;20.10;56.60
38183;DHT22;23991;52.430;10.586;2022-09-25T16:51:04;20.10;56.90
38183;DHT22;23991;52.430;10.586;2022-09-25T16:53:35;20.00;57.20
38183;DHT22;23991;52.430;10.586;2022-09-25T16:56:02;19.70;58.20
38183;DHT22;23991;52.430;10.586;2022-09-25T16:58:28;19.80;57.80
38183;DHT22;23991;52.430;10.586;2022-09-25T17:00:54;19.60;58.30
38183;DHT22;23991;52.430;10.586;2022-09-25T17:03:20;19.40;58.60
38183;DHT22;23991;52.430;10.586;2022-09-25T17:05:46;19.20;59.50
38183;DHT22;23991;52.430;10.586;2022-09-25T17:08:19;19.30;59.20
38183;DHT22;23991;52.430;10.586;2022-09-25T17:10:47;19.40;58.80
38183;DHT22;23991;52.430;10.586;2022-09-25T17:13:16;19.40;58.90
38183;DHT22;23991;52.430;10.586;2022-09-25T17:15:43;19.20;59.50
38183;DHT22;23991;52.430;10.586;2022-09-25T17:18:19;19.10;59.90
38183;DHT22;23991;52.430;10.586;2022-09-25T17:20:49;19.00;60.00
38183;DHT22;23991;52.430;10.586;2022-09-25T17:23:18;18.80;60.60
38183;DHT22;23991;52.430;10.586;2022-09-25T17:25:48;18.80;60.90
38183;DHT22;23991;52.430;10.586;2022-09-25T17:28:15;18.70;60.90
38183;DHT22;23991;52.430;10.586;2022-09-25T17:30:42;18.50;61.10
38183;DHT22;23991;52.430;10.586;2022-09-25T17:33:16;18.30;61.50
38183;DHT22;23991;52.430;10.586;2022-09-25T17:38:21;18.00;62.30
38183;DHT22;23991;52.430;10.586;2022-09-25T17:40:47;18.00;62.50
38183;DHT22;23991;52.430;10.586;2022-09-25T17:43:17;17.80;62.80
38183;DHT22;23991;52.430;10.586;2022-09-25T17:45:51;17.70;63.10
38183;DHT22;23991;52.430;10.586;2022-09-25T17:48:20;17.40;63.70
38183;DHT22;23991;52.430;10.586;2022-09-25T17:53:21;17.30;64.30
38183;DHT22;23991;52.430;10.586;2022-09-25T17:55:47;17.20;64.70
38183;DHT22;23991;52.430;10.586;2022-09-25T17:58:14;17.10;64.80